sensor_id;sensor_type;location;lat;lon;timestamp;P1;durP1;ratioP1;P2;durP2;ratioP2
37905;SDS011;23739;51.448;6.674;2024-03-22T00:01:13;32.55;;;19.88;;
37905;SDS011;23739;51.448;6.674;2024-03-22T00:03:39;29.40;;;18.45;;
37905;SDS011;23739;51.448;6.674;2024-03-22T00:06:05;38.28;;;20.73;;
37905;SDS011;23739;51.448;6.674;2024-03-22T00:08:31;33.45;;;17.80;;
37905;SDS011;23739;51.448;6.674;2024-03-22T00:10:57;28.45;;;17.67;;
37905;SDS011;23739;51.448;6.674;2024-03-22T00:13:23;30.75;;;18.73;;
37905;SDS011;23739;51.448;6.674;2024-03-22T00:15:49;30.50;;;18.67;;
37905;SDS011;23739;51.448;6.674;2024-03-22T00:18:15;28.35;;;18.42;;
37905;SDS011;23739;51.448;6.674;2024-03-22T00:20:42;31.73;;;18.90;;
37905;SDS011;23739;51.448;6.674;2024-03-22T00:23:08;31.88;;;18.80;;
37905;SDS011;23739;51.448;6.674;2024-03-22T00:25:34;32.15;;;19.02;;
37905;SDS011;23739;51.448;6.674;2024-03-22T00:27:59;34.45;;;20.23;;
37905;SDS011;23739;51.448;6.674;2024-03-22T00:30:26;37.03;;;19.45;;
37905;SDS011;23739;51.448;6.674;2024-03-22T00:32:53;33.20;;;18.95;;
37905;SDS011;23739;51.448;6.674;2024-03-22T00:35:19;28.42;;;18.00;;
37905;SDS011;23739;51.448;6.674;2024-03-22T00:37:45;30.95;;;18.25;;
37905;SDS011;23739;51.448;6.674;2024-03-22T00:40:12;28.58;;;18.15;;
37905;SDS011;23739;51.448;6.674;2024-03-22T00:42:38;29.35;;;19.48;;
37905;SDS011;23739;51.448;6.674;2024-03-22T00:45:04;33.72;;;17.83;;
37905;SDS011;23739;51.448;6.674;2024-03-22T00:47:30;32.55;;;17.98;;
37905;SDS011;23739;51.448;6.674;2024-03-22T00:49:56;30.00;;;18.80;;
37905;SDS011;23739;51.448;6.674;2024-03-22T00:52:23;36.78;;;20.10;;
37905;SDS011;23739;51.448;6.674;2024-03-22T00:54:50;34.67;;;19.65;;
37905;SDS011;23739;51.448;6.674;2024-03-22T00:57:16;37.58;;;19.05;;
37905;SDS011;23739;51.448;6.674;2024-03-22T00:59:42;36.95;;;20.48;;
37905;SDS011;23739;51.448;6.674;2024-03-22T01:02:08;29.35;;;18.30;;
37905;SDS011;23739;51.448;6.674;2024-03-22T01:04:34;36.00;;;20.63;;
37905;SDS011;23739;51.448;6.674;2024-03-22T01:07:00;32.15;;;18.92;;
37905;SDS011;23739;51.448;6.674;2024-03-22T01:09:27;32.85;;;18.98;;
37905;SDS011;23739;51.448;6.674;2024-03-22T01:11:53;31.48;;;19.52;;
37905;SDS011;23739;51.448;6.674;2024-03-22T01:14:19;29.73;;;18.23;;
37905;SDS011;23739;51.448;6.674;2024-03-22T01:16:45;33.75;;;18.40;;
37905;SDS011;23739;51.448;6.674;2024-03-22T01:19:11;29.00;;;18.90;;
37905;SDS011;23739;51.448;6.674;2024-03-22T01:21:37;32.75;;;20.30;;
37905;SDS011;23739;51.448;6.674;2024-03-22T01:24:03;32.75;;;18.73;;
37905;SDS011;23739;51.448;6.674;2024-03-22T01:26:29;34.58;;;18.70;;
37905;SDS011;23739;51.448;6.674;2024-03-22T01:28:56;36.33;;;21.33;;
37905;SDS011;23739;51.448;6.674;2024-03-22T01:31:22;34.35;;;20.38;;
37905;SDS011;23739;51.448;6.674;2024-03-22T01:33:48;33.20;;;18.60;;
37905;SDS011;23739;51.448;6.674;2024-03-22T01:36:14;30.20;;;18.90;;
37905;SDS011;23739;51.448;6.674;2024-03-22T01:38:40;34.17;;;19.60;;
37905;SDS011;23739;51.448;6.674;2024-03-22T01:41:06;33.03;;;19.80;;
37905;SDS011;23739;51.448;6.674;2024-03-22T01:43:32;37.00;;;20.75;;
37905;SDS011;23739;51.448;6.674;2024-03-22T01:45:58;39.80;;;22.15;;
37905;SDS011;23739;51.448;6.674;2024-03-22T01:48:24;31.45;;;18.77;;
37905;SDS011;23739;51.448;6.674;2024-03-22T01:50:50;33.05;;;20.38;;
37905;SDS011;23739;51.448;6.674;2024-03-22T01:53:17;39.50;;;23.23;;
37905;SDS011;23739;51.448;6.674;2024-03-22T01:55:43;36.97;;;20.75;;
37905;SDS011;23739;51.448;6.674;2024-03-22T01:58:10;36.40;;;20.55;;
37905;SDS011;23739;51.448;6.674;2024-03-22T02:00:37;36.42;;;20.65;;
37905;SDS011;23739;51.448;6.674;2024-03-22T02:03:03;32.33;;;20.42;;
37905;SDS011;23739;51.448;6.674;2024-03-22T02:05:30;39.35;;;21.58;;
37905;SDS011;23739;51.448;6.674;2024-03-22T02:07:56;35.47;;;20.08;;
37905;SDS011;23739;51.448;6.674;2024-03-22T02:10:22;31.90;;;20.20;;
37905;SDS011;23739;51.448;6.674;2024-03-22T02:12:48;37.22;;;21.52;;
37905;SDS011;23739;51.448;6.674;2024-03-22T02:15:14;35.97;;;19.98;;
37905;SDS011;23739;51.448;6.674;2024-03-22T02:17:40;40.15;;;20.73;;
37905;SDS011;23739;51.448;6.674;2024-03-22T02:20:06;38.80;;;20.90;;
37905;SDS011;23739;51.448;6.674;2024-03-22T02:22:33;37.22;;;20.52;;
37905;SDS011;23739;51.448;6.674;2024-03-22T02:24:59;37.50;;;20.85;;
37905;SDS011;23739;51.448;6.674;2024-03-22T02:27:25;37.63;;;21.52;;
37905;SDS011;23739;51.448;6.674;2024-03-22T02:29:51;37.05;;;20.02;;
37905;SDS011;23739;51.448;6.674;2024-03-22T02:32:17;37.65;;;19.65;;
37905;SDS011;23739;51.448;6.674;2024-03-22T02:34:43;40.70;;;21.48;;
37905;SDS011;23739;51.448;6.674;2024-03-22T02:37:09;37.00;;;21.15;;
37905;SDS011;23739;51.448;6.674;2024-03-22T02:39:35;34.45;;;21.27;;
37905;SDS011;23739;51.448;6.674;2024-03-22T02:42:01;38.78;;;21.20;;
37905;SDS011;23739;51.448;6.674;2024-03-22T02:44:27;35.25;;;21.02;;
37905;SDS011;23739;51.448;6.674;2024-03-22T02:46:54;32.22;;;19.27;;
37905;SDS011;23739;51.448;6.674;2024-03-22T02:49:20;37.88;;;19.77;;
37905;SDS011;23739;51.448;6.674;2024-03-22T02:51:46;34.33;;;20.83;;
37905;SDS011;23739;51.448;6.674;2024-03-22T02:54:12;36.65;;;21.40;;
37905;SDS011;23739;51.448;6.674;2024-03-22T02:56:38;34.72;;;20.42;;
37905;SDS011;23739;51.448;6.674;2024-03-22T02:59:04;34.30;;;18.63;;
37905;SDS011;23739;51.448;6.674;2024-03-22T03:01:30;35.47;;;20.77;;
37905;SDS011;23739;51.448;6.674;2024-03-22T03:03:56;39.85;;;20.90;;
37905;SDS011;23739;51.448;6.674;2024-03-22T03:06:22;36.70;;;20.75;;
37905;SDS011;23739;51.448;6.674;2024-03-22T03:08:49;38.33;;;20.90;;
37905;SDS011;23739;51.448;6.674;2024-03-22T03:11:15;33.67;;;20.40;;
37905;SDS011;23739;51.448;6.674;2024-03-22T03:13:41;35.17;;;20.42;;
37905;SDS011;23739;51.448;6.674;2024-03-22T03:16:07;31.90;;;18.90;;
37905;SDS011;23739;51.448;6.674;2024-03-22T03:18:33;35.22;;;19.45;;
37905;SDS011;23739;51.448;6.674;2024-03-22T03:21:00;38.65;;;21.80;;
37905;SDS011;23739;51.448;6.674;2024-03-22T03:23:26;35.53;;;19.58;;
37905;SDS011;23739;51.448;6.674;2024-03-22T03:25:52;33.42;;;21.08;;
37905;SDS011;23739;51.448;6.674;2024-03-22T03:28:18;36.85;;;21.40;;
37905;SDS011;23739;51.448;6.674;2024-03-22T03:30:44;32.50;;;19.75;;
37905;SDS011;23739;51.448;6.674;2024-03-22T03:33:10;36.25;;;21.33;;
37905;SDS011;23739;51.448;6.674;2024-03-22T03:35:36;33.65;;;20.63;;
37905;SDS011;23739;51.448;6.674;2024-03-22T03:38:02;40.05;;;22.38;;
37905;SDS011;23739;51.448;6.674;2024-03-22T03:40:28;40.40;;;21.73;;
37905;SDS011;23739;51.448;6.674;2024-03-22T03:42:54;38.33;;;21.40;;
37905;SDS011;23739;51.448;6.674;2024-03-22T03:45:21;37.92;;;20.60;;
37905;SDS011;23739;51.448;6.674;2024-03-22T03:47:47;35.17;;;20.92;;
37905;SDS011;23739;51.448;6.674;2024-03-22T03:50:13;39.00;;;22.70;;
37905;SDS011;23739;51.448;6.674;2024-03-22T03:52:39;36.67;;;22.15;;
37905;SDS011;23739;51.448;6.674;2024-03-22T03:55:05;37.50;;;22.27;;
37905;SDS011;23739;51.448;6.674;2024-03-22T03:57:31;38.08;;;21.75;;
37905;SDS011;23739;51.448;6.674;2024-03-22T03:59:57;38.17;;;22.83;;
37905;SDS011;23739;51.448;6.674;2024-03-22T04:02:23;39.63;;;23.20;;
37905;SDS011;23739;51.448;6.674;2024-03-22T04:04:51;37.90;;;21.90;;
37905;SDS011;23739;51.448;6.674;2024-03-22T04:07:18;40.17;;;22.23;;
37905;SDS011;23739;51.448;6.674;2024-03-22T04:09:44;41.10;;;22.25;;
37905;SDS011;23739;51.448;6.674;2024-03-22T04:12:10;37.70;;;21.08;;
37905;SDS011;23739;51.448;6.674;2024-03-22T04:14:36;35.67;;;22.52;;
37905;SDS011;23739;51.448;6.674;2024-03-22T04:17:02;40.42;;;23.77;;
37905;SDS011;23739;51.448;6.674;2024-03-22T04:19:28;35.40;;;21.67;;
37905;SDS011;23739;51.448;6.674;2024-03-22T04:21:54;33.08;;;22.23;;
37905;SDS011;23739;51.448;6.674;2024-03-22T04:24:20;41.78;;;22.00;;
37905;SDS011;23739;51.448;6.674;2024-03-22T04:26:46;32.90;;;19.95;;
37905;SDS011;23739;51.448;6.674;2024-03-22T04:29:12;36.15;;;22.13;;
37905;SDS011;23739;51.448;6.674;2024-03-22T04:31:38;34.20;;;22.70;;
37905;SDS011;23739;51.448;6.674;2024-03-22T04:34:04;39.90;;;21.40;;
37905;SDS011;23739;51.448;6.674;2024-03-22T04:36:32;39.17;;;20.90;;
37905;SDS011;23739;51.448;6.674;2024-03-22T04:38:58;36.30;;;20.23;;
37905;SDS011;23739;51.448;6.674;2024-03-22T04:41:24;35.10;;;19.48;;
37905;SDS011;23739;51.448;6.674;2024-03-22T04:43:50;36.05;;;21.80;;
37905;SDS011;23739;51.448;6.674;2024-03-22T04:46:16;39.13;;;21.73;;
37905;SDS011;23739;51.448;6.674;2024-03-22T04:48:43;35.72;;;21.48;;
37905;SDS011;23739;51.448;6.674;2024-03-22T04:51:09;38.10;;;21.50;;
37905;SDS011;23739;51.448;6.674;2024-03-22T04:53:35;36.20;;;21.80;;
37905;SDS011;23739;51.448;6.674;2024-03-22T04:56:01;31.98;;;20.77;;
37905;SDS011;23739;51.448;6.674;2024-03-22T04:58:28;37.10;;;21.05;;
37905;SDS011;23739;51.448;6.674;2024-03-22T05:00:57;31.00;;;21.00;;
37905;SDS011;23739;51.448;6.674;2024-03-22T05:03:24;36.42;;;21.33;;
37905;SDS011;23739;51.448;6.674;2024-03-22T05:05:50;35.13;;;19.60;;
37905;SDS011;23739;51.448;6.674;2024-03-22T05:08:16;35.58;;;20.40;;
37905;SDS011;23739;51.448;6.674;2024-03-22T05:10:42;34.47;;;20.10;;
37905;SDS011;23739;51.448;6.674;2024-03-22T05:13:08;37.35;;;20.42;;
37905;SDS011;23739;51.448;6.674;2024-03-22T05:15:34;31.88;;;21.23;;
37905;SDS011;23739;51.448;6.674;2024-03-22T05:18:00;29.92;;;19.90;;
37905;SDS011;23739;51.448;6.674;2024-03-22T05:20:26;33.63;;;21.02;;
37905;SDS011;23739;51.448;6.674;2024-03-22T05:22:52;35.60;;;20.42;;
37905;SDS011;23739;51.448;6.674;2024-03-22T05:25:19;30.90;;;19.83;;
37905;SDS011;23739;51.448;6.674;2024-03-22T05:27:45;29.25;;;20.02;;
37905;SDS011;23739;51.448;6.674;2024-03-22T05:30:12;39.78;;;20.38;;
37905;SDS011;23739;51.448;6.674;2024-03-22T05:32:39;29.45;;;19.23;;
37905;SDS011;23739;51.448;6.674;2024-03-22T05:35:05;33.20;;;20.35;;
37905;SDS011;23739;51.448;6.674;2024-03-22T05:37:32;31.50;;;19.90;;
37905;SDS011;23739;51.448;6.674;2024-03-22T05:39:59;30.42;;;18.60;;
37905;SDS011;23739;51.448;6.674;2024-03-22T05:42:25;30.65;;;18.70;;
37905;SDS011;23739;51.448;6.674;2024-03-22T05:44:52;28.80;;;18.13;;
37905;SDS011;23739;51.448;6.674;2024-03-22T05:47:18;30.30;;;19.48;;
37905;SDS011;23739;51.448;6.674;2024-03-22T05:49:45;31.08;;;18.58;;
37905;SDS011;23739;51.448;6.674;2024-03-22T05:52:11;32.13;;;19.58;;
37905;SDS011;23739;51.448;6.674;2024-03-22T05:54:38;28.92;;;20.10;;
37905;SDS011;23739;51.448;6.674;2024-03-22T05:57:04;26.75;;;17.80;;
37905;SDS011;23739;51.448;6.674;2024-03-22T05:59:30;27.48;;;18.50;;
37905;SDS011;23739;51.448;6.674;2024-03-22T06:01:56;26.85;;;18.25;;
37905;SDS011;23739;51.448;6.674;2024-03-22T06:04:22;27.00;;;17.13;;
37905;SDS011;23739;51.448;6.674;2024-03-22T06:06:51;29.75;;;17.48;;
37905;SDS011;23739;51.448;6.674;2024-03-22T06:09:17;30.17;;;18.17;;
37905;SDS011;23739;51.448;6.674;2024-03-22T06:11:59;30.00;;;18.80;;
37905;SDS011;23739;51.448;6.674;2024-03-22T06:14:27;27.33;;;16.92;;
37905;SDS011;23739;51.448;6.674;2024-03-22T06:16:53;27.35;;;18.20;;
37905;SDS011;23739;51.448;6.674;2024-03-22T06:19:19;28.67;;;19.08;;
37905;SDS011;23739;51.448;6.674;2024-03-22T06:21:45;33.85;;;17.63;;
37905;SDS011;23739;51.448;6.674;2024-03-22T06:24:11;31.50;;;17.55;;
37905;SDS011;23739;51.448;6.674;2024-03-22T06:26:37;27.67;;;17.40;;
37905;SDS011;23739;51.448;6.674;2024-03-22T06:29:04;32.15;;;19.20;;
37905;SDS011;23739;51.448;6.674;2024-03-22T06:31:30;26.27;;;17.40;;
37905;SDS011;23739;51.448;6.674;2024-03-22T06:33:56;32.65;;;17.52;;
37905;SDS011;23739;51.448;6.674;2024-03-22T06:36:27;27.50;;;16.40;;
37905;SDS011;23739;51.448;6.674;2024-03-22T06:38:53;30.17;;;16.67;;
37905;SDS011;23739;51.448;6.674;2024-03-22T06:41:19;24.92;;;16.70;;
37905;SDS011;23739;51.448;6.674;2024-03-22T06:43:45;26.95;;;17.13;;
37905;SDS011;23739;51.448;6.674;2024-03-22T06:46:12;24.73;;;16.38;;
37905;SDS011;23739;51.448;6.674;2024-03-22T06:48:38;32.60;;;18.05;;
37905;SDS011;23739;51.448;6.674;2024-03-22T06:51:04;24.38;;;15.35;;
37905;SDS011;23739;51.448;6.674;2024-03-22T06:53:30;29.58;;;17.30;;
37905;SDS011;23739;51.448;6.674;2024-03-22T06:55:56;29.50;;;16.38;;
37905;SDS011;23739;51.448;6.674;2024-03-22T06:58:22;26.33;;;15.82;;
37905;SDS011;23739;51.448;6.674;2024-03-22T07:00:48;26.20;;;16.27;;
37905;SDS011;23739;51.448;6.674;2024-03-22T07:03:14;27.17;;;16.65;;
37905;SDS011;23739;51.448;6.674;2024-03-22T07:05:41;21.98;;;16.63;;
37905;SDS011;23739;51.448;6.674;2024-03-22T07:08:07;21.50;;;14.43;;
37905;SDS011;23739;51.448;6.674;2024-03-22T07:10:38;27.50;;;17.20;;
37905;SDS011;23739;51.448;6.674;2024-03-22T07:13:04;22.58;;;15.52;;
37905;SDS011;23739;51.448;6.674;2024-03-22T07:15:30;22.52;;;15.77;;
37905;SDS011;23739;51.448;6.674;2024-03-22T07:17:57;22.25;;;14.95;;
37905;SDS011;23739;51.448;6.674;2024-03-22T07:20:23;27.13;;;15.63;;
37905;SDS011;23739;51.448;6.674;2024-03-22T07:22:50;21.65;;;14.35;;
37905;SDS011;23739;51.448;6.674;2024-03-22T07:25:16;21.40;;;14.50;;
37905;SDS011;23739;51.448;6.674;2024-03-22T07:27:42;21.45;;;14.98;;
37905;SDS011;23739;51.448;6.674;2024-03-22T07:30:08;26.02;;;15.30;;
37905;SDS011;23739;51.448;6.674;2024-03-22T07:32:34;19.02;;;14.00;;
37905;SDS011;23739;51.448;6.674;2024-03-22T07:35:02;24.30;;;14.43;;
37905;SDS011;23739;51.448;6.674;2024-03-22T07:37:28;19.85;;;15.07;;
37905;SDS011;23739;51.448;6.674;2024-03-22T07:39:54;22.08;;;13.40;;
37905;SDS011;23739;51.448;6.674;2024-03-22T07:42:21;22.55;;;14.45;;
37905;SDS011;23739;51.448;6.674;2024-03-22T07:44:47;21.75;;;13.32;;
37905;SDS011;23739;51.448;6.674;2024-03-22T07:47:13;22.02;;;14.98;;
37905;SDS011;23739;51.448;6.674;2024-03-22T07:49:39;21.83;;;13.02;;
37905;SDS011;23739;51.448;6.674;2024-03-22T07:52:05;19.35;;;13.90;;
37905;SDS011;23739;51.448;6.674;2024-03-22T07:54:32;21.23;;;13.75;;
37905;SDS011;23739;51.448;6.674;2024-03-22T07:56:58;21.88;;;14.80;;
37905;SDS011;23739;51.448;6.674;2024-03-22T07:59:24;19.92;;;13.23;;
37905;SDS011;23739;51.448;6.674;2024-03-22T08:01:50;19.38;;;13.35;;
37905;SDS011;23739;51.448;6.674;2024-03-22T08:04:16;17.02;;;12.35;;
37905;SDS011;23739;51.448;6.674;2024-03-22T08:06:42;17.17;;;12.35;;
37905;SDS011;23739;51.448;6.674;2024-03-22T08:09:08;18.40;;;12.05;;
37905;SDS011;23739;51.448;6.674;2024-03-22T08:11:34;16.75;;;12.50;;
37905;SDS011;23739;51.448;6.674;2024-03-22T08:14:00;19.02;;;12.30;;
37905;SDS011;23739;51.448;6.674;2024-03-22T08:16:28;21.45;;;12.75;;
37905;SDS011;23739;51.448;6.674;2024-03-22T08:18:55;18.95;;;12.27;;
37905;SDS011;23739;51.448;6.674;2024-03-22T08:21:22;17.00;;;12.13;;
37905;SDS011;23739;51.448;6.674;2024-03-22T08:23:48;17.80;;;11.02;;
37905;SDS011;23739;51.448;6.674;2024-03-22T08:26:14;17.13;;;10.32;;
37905;SDS011;23739;51.448;6.674;2024-03-22T08:28:40;18.10;;;11.38;;
37905;SDS011;23739;51.448;6.674;2024-03-22T08:31:06;18.60;;;10.38;;
37905;SDS011;23739;51.448;6.674;2024-03-22T08:33:32;14.50;;;9.68;;
37905;SDS011;23739;51.448;6.674;2024-03-22T08:35:59;16.63;;;10.20;;
37905;SDS011;23739;51.448;6.674;2024-03-22T08:38:26;15.45;;;10.52;;
37905;SDS011;23739;51.448;6.674;2024-03-22T08:40:52;14.27;;;10.57;;
37905;SDS011;23739;51.448;6.674;2024-03-22T08:43:18;17.30;;;10.70;;
37905;SDS011;23739;51.448;6.674;2024-03-22T08:45:47;14.40;;;10.25;;
37905;SDS011;23739;51.448;6.674;2024-03-22T08:48:13;18.33;;;10.52;;
37905;SDS011;23739;51.448;6.674;2024-03-22T08:50:39;14.38;;;9.93;;
37905;SDS011;23739;51.448;6.674;2024-03-22T08:53:07;16.50;;;9.45;;
37905;SDS011;23739;51.448;6.674;2024-03-22T08:55:33;16.33;;;10.77;;
37905;SDS011;23739;51.448;6.674;2024-03-22T08:58:00;15.15;;;9.35;;
37905;SDS011;23739;51.448;6.674;2024-03-22T09:00:26;14.10;;;9.88;;
37905;SDS011;23739;51.448;6.674;2024-03-22T09:02:52;18.25;;;11.20;;
37905;SDS011;23739;51.448;6.674;2024-03-22T09:05:18;15.20;;;9.80;;
37905;SDS011;23739;51.448;6.674;2024-03-22T09:07:44;15.50;;;9.27;;
37905;SDS011;23739;51.448;6.674;2024-03-22T09:10:11;14.55;;;9.30;;
37905;SDS011;23739;51.448;6.674;2024-03-22T09:12:37;15.05;;;8.75;;
37905;SDS011;23739;51.448;6.674;2024-03-22T09:15:03;13.70;;;9.50;;
37905;SDS011;23739;51.448;6.674;2024-03-22T09:17:29;15.07;;;9.88;;
37905;SDS011;23739;51.448;6.674;2024-03-22T09:19:55;15.73;;;10.38;;
37905;SDS011;23739;51.448;6.674;2024-03-22T09:22:21;16.73;;;9.48;;
37905;SDS011;23739;51.448;6.674;2024-03-22T09:24:48;16.73;;;8.88;;
37905;SDS011;23739;51.448;6.674;2024-03-22T09:27:15;14.70;;;9.52;;
37905;SDS011;23739;51.448;6.674;2024-03-22T09:29:41;15.35;;;10.00;;
37905;SDS011;23739;51.448;6.674;2024-03-22T09:32:08;11.57;;;8.57;;
37905;SDS011;23739;51.448;6.674;2024-03-22T09:34:35;18.55;;;10.23;;
37905;SDS011;23739;51.448;6.674;2024-03-22T09:37:01;14.27;;;9.43;;
37905;SDS011;23739;51.448;6.674;2024-03-22T09:39:27;13.88;;;9.00;;
37905;SDS011;23739;51.448;6.674;2024-03-22T09:41:53;14.18;;;10.10;;
37905;SDS011;23739;51.448;6.674;2024-03-22T09:44:22;21.45;;;10.45;;
37905;SDS011;23739;51.448;6.674;2024-03-22T09:46:50;14.45;;;9.68;;
37905;SDS011;23739;51.448;6.674;2024-03-22T09:49:16;12.50;;;9.18;;
37905;SDS011;23739;51.448;6.674;2024-03-22T09:51:43;15.48;;;9.23;;
37905;SDS011;23739;51.448;6.674;2024-03-22T09:54:12;14.60;;;9.85;;
37905;SDS011;23739;51.448;6.674;2024-03-22T09:56:38;13.23;;;9.18;;
37905;SDS011;23739;51.448;6.674;2024-03-22T09:59:08;15.20;;;9.90;;
37905;SDS011;23739;51.448;6.674;2024-03-22T10:01:38;17.35;;;10.15;;
37905;SDS011;23739;51.448;6.674;2024-03-22T10:04:05;14.27;;;9.45;;
37905;SDS011;23739;51.448;6.674;2024-03-22T10:06:33;16.27;;;9.90;;
37905;SDS011;23739;51.448;6.674;2024-03-22T10:08:59;12.43;;;9.23;;
37905;SDS011;23739;51.448;6.674;2024-03-22T10:11:28;15.02;;;9.27;;
37905;SDS011;23739;51.448;6.674;2024-03-22T10:13:55;14.27;;;10.10;;
37905;SDS011;23739;51.448;6.674;2024-03-22T10:16:21;15.75;;;9.68;;
37905;SDS011;23739;51.448;6.674;2024-03-22T10:18:48;16.00;;;10.40;;
37905;SDS011;23739;51.448;6.674;2024-03-22T10:21:17;15.18;;;9.63;;
37905;SDS011;23739;51.448;6.674;2024-03-22T10:23:44;14.23;;;8.75;;
37905;SDS011;23739;51.448;6.674;2024-03-22T10:26:12;13.23;;;9.20;;
37905;SDS011;23739;51.448;6.674;2024-03-22T10:28:44;12.18;;;9.13;;
37905;SDS011;23739;51.448;6.674;2024-03-22T10:33:36;13.57;;;8.98;;
37905;SDS011;23739;51.448;6.674;2024-03-22T10:36:02;13.70;;;8.55;;
37905;SDS011;23739;51.448;6.674;2024-03-22T10:38:29;12.68;;;9.23;;
37905;SDS011;23739;51.448;6.674;2024-03-22T10:40:56;11.48;;;8.70;;
37905;SDS011;23739;51.448;6.674;2024-03-22T10:43:22;13.80;;;9.05;;
37905;SDS011;23739;51.448;6.674;2024-03-22T10:45:48;11.15;;;8.50;;
37905;SDS011;23739;51.448;6.674;2024-03-22T10:48:16;11.90;;;8.48;;
37905;SDS011;23739;51.448;6.674;2024-03-22T10:50:43;16.30;;;9.45;;
37905;SDS011;23739;51.448;6.674;2024-03-22T10:53:11;12.57;;;9.55;;
37905;SDS011;23739;51.448;6.674;2024-03-22T10:55:39;10.90;;;8.05;;
37905;SDS011;23739;51.448;6.674;2024-03-22T10:58:08;14.23;;;8.75;;
37905;SDS011;23739;51.448;6.674;2024-03-22T11:00:41;14.88;;;8.60;;
37905;SDS011;23739;51.448;6.674;2024-03-22T11:03:08;12.18;;;8.05;;
37905;SDS011;23739;51.448;6.674;2024-03-22T11:05:44;12.27;;;8.60;;
37905;SDS011;23739;51.448;6.674;2024-03-22T11:08:10;10.45;;;8.02;;
37905;SDS011;23739;51.448;6.674;2024-03-22T11:10:36;13.32;;;8.48;;
37905;SDS011;23739;51.448;6.674;2024-03-22T11:13:03;11.48;;;8.32;;
37905;SDS011;23739;51.448;6.674;2024-03-22T11:15:30;12.50;;;9.23;;
37905;SDS011;23739;51.448;6.674;2024-03-22T11:17:57;13.07;;;9.45;;
37905;SDS011;23739;51.448;6.674;2024-03-22T11:20:24;16.05;;;8.85;;
37905;SDS011;23739;51.448;6.674;2024-03-22T11:22:53;13.38;;;8.63;;
37905;SDS011;23739;51.448;6.674;2024-03-22T11:25:19;12.50;;;8.85;;
37905;SDS011;23739;51.448;6.674;2024-03-22T11:27:46;11.52;;;8.35;;
37905;SDS011;23739;51.448;6.674;2024-03-22T11:30:12;13.60;;;9.85;;
37905;SDS011;23739;51.448;6.674;2024-03-22T11:32:39;15.27;;;10.00;;
37905;SDS011;23739;51.448;6.674;2024-03-22T11:35:12;13.73;;;9.57;;
37905;SDS011;23739;51.448;6.674;2024-03-22T11:37:38;15.00;;;9.98;;
37905;SDS011;23739;51.448;6.674;2024-03-22T11:40:06;13.38;;;9.73;;
37905;SDS011;23739;51.448;6.674;2024-03-22T11:42:33;13.07;;;9.77;;
37905;SDS011;23739;51.448;6.674;2024-03-22T11:45:00;15.13;;;9.55;;
37905;SDS011;23739;51.448;6.674;2024-03-22T11:47:27;14.07;;;9.27;;
37905;SDS011;23739;51.448;6.674;2024-03-22T11:49:53;13.15;;;9.40;;
37905;SDS011;23739;51.448;6.674;2024-03-22T11:52:24;12.38;;;9.45;;
37905;SDS011;23739;51.448;6.674;2024-03-22T11:54:50;13.95;;;9.73;;
37905;SDS011;23739;51.448;6.674;2024-03-22T11:57:17;14.50;;;8.90;;
37905;SDS011;23739;51.448;6.674;2024-03-22T11:59:43;13.60;;;8.65;;
37905;SDS011;23739;51.448;6.674;2024-03-22T12:02:09;11.70;;;9.00;;
37905;SDS011;23739;51.448;6.674;2024-03-22T12:04:35;13.70;;;9.13;;
37905;SDS011;23739;51.448;6.674;2024-03-22T12:07:01;13.52;;;8.35;;
37905;SDS011;23739;51.448;6.674;2024-03-22T12:09:28;13.07;;;9.45;;
37905;SDS011;23739;51.448;6.674;2024-03-22T12:11:55;12.65;;;9.65;;
37905;SDS011;23739;51.448;6.674;2024-03-22T12:14:21;12.80;;;9.23;;
37905;SDS011;23739;51.448;6.674;2024-03-22T12:16:47;13.20;;;9.55;;
37905;SDS011;23739;51.448;6.674;2024-03-22T12:19:13;13.00;;;9.40;;
37905;SDS011;23739;51.448;6.674;2024-03-22T12:21:39;14.07;;;9.23;;
37905;SDS011;23739;51.448;6.674;2024-03-22T12:24:05;14.68;;;10.27;;
37905;SDS011;23739;51.448;6.674;2024-03-22T12:26:31;14.00;;;10.75;;
37905;SDS011;23739;51.448;6.674;2024-03-22T12:28:57;15.65;;;9.77;;
37905;SDS011;23739;51.448;6.674;2024-03-22T12:31:24;13.43;;;9.52;;
37905;SDS011;23739;51.448;6.674;2024-03-22T12:33:50;13.43;;;9.93;;
37905;SDS011;23739;51.448;6.674;2024-03-22T12:36:16;13.90;;;9.25;;
37905;SDS011;23739;51.448;6.674;2024-03-22T12:38:42;12.52;;;9.77;;
37905;SDS011;23739;51.448;6.674;2024-03-22T12:41:08;11.82;;;9.43;;
37905;SDS011;23739;51.448;6.674;2024-03-22T12:43:34;13.55;;;8.82;;
37905;SDS011;23739;51.448;6.674;2024-03-22T12:46:00;12.40;;;9.60;;
37905;SDS011;23739;51.448;6.674;2024-03-22T12:48:26;13.00;;;9.23;;
37905;SDS011;23739;51.448;6.674;2024-03-22T12:50:52;13.50;;;10.55;;
37905;SDS011;23739;51.448;6.674;2024-03-22T12:53:18;15.18;;;10.05;;
37905;SDS011;23739;51.448;6.674;2024-03-22T12:55:44;14.30;;;10.48;;
37905;SDS011;23739;51.448;6.674;2024-03-22T12:58:11;21.10;;;16.85;;
37905;SDS011;23739;51.448;6.674;2024-03-22T13:00:37;18.75;;;12.57;;
37905;SDS011;23739;51.448;6.674;2024-03-22T13:03:03;14.25;;;10.57;;
37905;SDS011;23739;51.448;6.674;2024-03-22T13:05:29;13.98;;;9.70;;
37905;SDS011;23739;51.448;6.674;2024-03-22T13:07:56;12.13;;;9.60;;
37905;SDS011;23739;51.448;6.674;2024-03-22T13:10:22;11.02;;;9.40;;
37905;SDS011;23739;51.448;6.674;2024-03-22T13:12:48;15.20;;;8.88;;
37905;SDS011;23739;51.448;6.674;2024-03-22T13:15:14;12.85;;;9.80;;
37905;SDS011;23739;51.448;6.674;2024-03-22T13:17:40;15.48;;;9.93;;
37905;SDS011;23739;51.448;6.674;2024-03-22T13:20:06;13.32;;;9.25;;
37905;SDS011;23739;51.448;6.674;2024-03-22T13:22:36;12.07;;;9.18;;
37905;SDS011;23739;51.448;6.674;2024-03-22T13:25:02;17.73;;;11.20;;
37905;SDS011;23739;51.448;6.674;2024-03-22T13:27:31;14.82;;;9.73;;
37905;SDS011;23739;51.448;6.674;2024-03-22T13:29:58;15.10;;;10.82;;
37905;SDS011;23739;51.448;6.674;2024-03-22T13:32:24;15.70;;;10.77;;
37905;SDS011;23739;51.448;6.674;2024-03-22T13:34:50;13.30;;;9.75;;
37905;SDS011;23739;51.448;6.674;2024-03-22T13:37:16;14.85;;;11.07;;
37905;SDS011;23739;51.448;6.674;2024-03-22T13:39:42;14.88;;;10.45;;
37905;SDS011;23739;51.448;6.674;2024-03-22T13:42:08;14.65;;;10.32;;
37905;SDS011;23739;51.448;6.674;2024-03-22T13:44:34;14.75;;;10.90;;
37905;SDS011;23739;51.448;6.674;2024-03-22T13:47:01;16.13;;;11.02;;
37905;SDS011;23739;51.448;6.674;2024-03-22T13:49:29;16.45;;;11.75;;
37905;SDS011;23739;51.448;6.674;2024-03-22T13:51:57;14.07;;;10.32;;
37905;SDS011;23739;51.448;6.674;2024-03-22T13:54:27;12.15;;;10.50;;
37905;SDS011;23739;51.448;6.674;2024-03-22T13:56:53;14.82;;;11.63;;
37905;SDS011;23739;51.448;6.674;2024-03-22T13:59:19;15.10;;;10.70;;
37905;SDS011;23739;51.448;6.674;2024-03-22T14:01:45;15.75;;;12.73;;
37905;SDS011;23739;51.448;6.674;2024-03-22T14:04:12;18.83;;;12.32;;
37905;SDS011;23739;51.448;6.674;2024-03-22T14:06:40;18.05;;;13.35;;
37905;SDS011;23739;51.448;6.674;2024-03-22T14:09:09;15.68;;;12.63;;
37905;SDS011;23739;51.448;6.674;2024-03-22T14:11:38;18.65;;;13.18;;
37905;SDS011;23739;51.448;6.674;2024-03-22T14:14:04;18.00;;;12.75;;
37905;SDS011;23739;51.448;6.674;2024-03-22T14:16:30;22.02;;;13.25;;
37905;SDS011;23739;51.448;6.674;2024-03-22T14:18:56;20.00;;;14.93;;
37905;SDS011;23739;51.448;6.674;2024-03-22T14:21:22;22.10;;;14.77;;
37905;SDS011;23739;51.448;6.674;2024-03-22T14:23:49;20.98;;;13.48;;